Flugplatz Friedersdorf

Für EDCF sind keine METAR/TAF Berichte vorhanden.
Es werden die Flugwettermeldungen vom Flugplatz Berlin-Schönefeld International in 21 km Entfernung angezeigt.

Bericht für EDDB

vom 09.08. um 05:20 UTC

Wind 5 kt aus 30°

Sichtweite 10 km oder mehr

gute Sicht, keine Wolken < 5000 ft, keine CB, keine Wettererscheinungen (CAVOK)

Temperatur 19.0°C

Taupunkt 11.0°C

Luftfeuchtigkeit 60%

Luftdruck 1026 hPa

keine wesentliche Wetteränderung innerhalb den nächsten 2 Stunden zu erwarten

EDDB 090520Z AUTO 03005KT CAVOK 19/11 Q1026 NOSIG

Prognose für EDDB

vom 09.08. um 05:00 UTC

Zwischen 06:00 UTC und 06:00 UTC

Wind 6 kt aus 20°

Sichtweite 10 km oder mehr

keine signifikanten Wettererscheinungen

keine Wolken

TAF EDDB 090500Z 0906/1006 02006KT CAVOK
Impressum